createdAt,value
2018-04-18T00:00:55.526Z,26.50
2018-04-18T00:01:55.508Z,27.70
2018-04-18T00:02:55.498Z,27.90
2018-04-18T00:03:55.481Z,26.70
2018-04-18T00:04:55.473Z,27.00
2018-04-18T00:05:55.454Z,27.10
2018-04-18T00:06:55.443Z,25.90
2018-04-18T00:07:55.423Z,25.90
2018-04-18T00:08:55.423Z,26.60
2018-04-18T00:09:55.398Z,26.70
2018-04-18T00:10:55.385Z,26.70
2018-04-18T00:11:55.376Z,26.20
2018-04-18T00:12:55.353Z,26.20
2018-04-18T00:13:55.340Z,27.70
2018-04-18T00:14:55.334Z,28.20
2018-04-18T00:15:55.315Z,28.90
2018-04-18T00:16:55.303Z,29.20
2018-04-18T00:17:55.289Z,28.30
2018-04-18T00:18:55.274Z,28.20
2018-04-18T00:19:55.256Z,28.70
2018-04-18T00:20:55.252Z,29.70
2018-04-18T00:21:55.231Z,28.40
2018-04-18T00:22:55.222Z,28.90
2018-04-18T00:23:55.202Z,29.70
2018-04-18T00:24:55.198Z,27.60
2018-04-18T00:25:55.183Z,29.10
2018-04-18T00:26:55.198Z,29.60
2018-04-18T00:27:55.152Z,28.60
2018-04-18T00:28:55.131Z,27.40
2018-04-18T00:29:55.122Z,27.40
2018-04-18T00:30:55.110Z,26.70
2018-04-18T00:31:55.107Z,26.10
2018-04-18T00:32:55.080Z,25.80
2018-04-18T00:33:55.070Z,26.20
2018-04-18T00:34:55.053Z,27.50
2018-04-18T00:35:55.090Z,26.90
2018-04-18T00:36:55.027Z,25.80
2018-04-18T00:37:55.110Z,26.20
2018-04-18T00:38:55.002Z,27.00
2018-04-18T00:39:54.984Z,28.20
2018-04-18T00:40:54.975Z,26.80
2018-04-18T00:41:55.027Z,27.10
2018-04-18T00:42:54.944Z,26.30
2018-04-18T00:43:55.082Z,26.80
2018-04-18T00:44:54.914Z,28.10
2018-04-18T00:45:55.004Z,27.20
2018-04-18T00:46:54.884Z,28.70
2018-04-18T00:47:54.943Z,28.30
2018-04-18T00:48:54.858Z,26.80
2018-04-18T00:49:54.864Z,26.40
2018-04-18T00:50:54.833Z,27.10
2018-04-18T00:51:54.871Z,26.50
2018-04-18T00:52:54.803Z,26.40
2018-04-18T00:53:54.788Z,26.90
2018-04-18T00:54:54.774Z,26.40
2018-04-18T00:55:54.807Z,24.90
2018-04-18T00:56:54.744Z,25.80
2018-04-18T00:57:54.729Z,27.10
2018-04-18T00:58:54.719Z,26.50
2018-04-18T00:59:54.706Z,25.90
2018-04-18T01:00:54.694Z,26.10
2018-04-18T01:01:54.674Z,25.70
2018-04-18T01:02:54.663Z,24.90
2018-04-18T01:03:54.652Z,26.10
2018-04-18T01:04:54.634Z,26.10
2018-04-18T01:05:54.623Z,28.20
2018-04-18T01:06:54.607Z,25.40
2018-04-18T01:07:54.595Z,25.50
2018-04-18T01:08:54.574Z,26.00
2018-04-18T01:09:54.563Z,25.90
2018-04-18T01:10:54.550Z,25.80
2018-04-18T01:11:54.535Z,25.70
2018-04-18T01:12:54.524Z,26.50
2018-04-18T01:13:54.514Z,26.10
2018-04-18T01:14:54.494Z,25.50
2018-04-18T01:15:54.476Z,26.50
2018-04-18T01:16:54.462Z,27.00
2018-04-18T01:17:54.454Z,28.50
2018-04-18T01:18:54.437Z,27.40
2018-04-18T01:19:54.428Z,27.90
2018-04-18T01:20:54.409Z,28.20
2018-04-18T01:21:54.391Z,27.70
2018-04-18T01:22:54.380Z,29.10
2018-04-18T01:23:54.363Z,29.60
2018-04-18T01:24:54.347Z,28.80
2018-04-18T01:25:54.331Z,27.60
2018-04-18T01:26:54.321Z,28.50
2018-04-18T01:27:54.305Z,28.30
2018-04-18T01:28:54.292Z,27.80
2018-04-18T01:29:54.276Z,28.90
2018-04-18T01:30:54.264Z,28.50
2018-04-18T01:31:54.253Z,27.50
2018-04-18T01:32:54.235Z,27.70
2018-04-18T01:33:54.220Z,27.80
2018-04-18T01:34:54.203Z,28.10
2018-04-18T01:35:54.189Z,26.70
2018-04-18T01:36:54.182Z,27.40
2018-04-18T01:37:54.161Z,27.40
2018-04-18T01:38:54.150Z,26.00
2018-04-18T01:39:54.135Z,26.20
2018-04-18T01:40:54.119Z,26.10
2018-04-18T01:41:54.105Z,26.20
2018-04-18T01:42:54.090Z,25.70
2018-04-18T01:43:54.075Z,24.60
2018-04-18T01:44:54.064Z,26.10
2018-04-18T01:45:54.047Z,26.80
2018-04-18T01:46:54.036Z,25.60
2018-04-18T01:47:54.023Z,25.80
2018-04-18T01:48:54.003Z,26.10
2018-04-18T01:49:53.993Z,25.80
2018-04-18T01:50:53.973Z,26.30
2018-04-18T01:51:53.962Z,25.10
2018-04-18T01:52:53.947Z,25.30
2018-04-18T01:53:53.934Z,25.40
2018-04-18T01:54:53.918Z,25.80
2018-04-18T01:55:53.903Z,24.80
2018-04-18T01:56:53.894Z,25.60
2018-04-18T01:57:53.874Z,24.50
2018-04-18T01:58:53.864Z,25.40
2018-04-18T01:59:53.846Z,25.20
2018-04-18T02:00:53.834Z,26.70
2018-04-18T02:01:53.814Z,25.50
2018-04-18T02:02:53.801Z,26.30
2018-04-18T02:03:53.787Z,27.40
2018-04-18T02:04:53.771Z,27.20
2018-04-18T02:05:53.756Z,27.10
2018-04-18T02:06:53.742Z,28.90
2018-04-18T02:07:53.728Z,27.70
2018-04-18T02:08:53.713Z,28.40
2018-04-18T02:09:53.703Z,27.30
2018-04-18T02:10:53.683Z,27.20
2018-04-18T02:11:53.669Z,27.60
2018-04-18T02:12:53.658Z,27.20
2018-04-18T02:13:53.644Z,26.80
2018-04-18T02:14:53.623Z,27.20
2018-04-18T02:15:53.612Z,26.20
2018-04-18T02:16:53.599Z,25.60
2018-04-18T02:17:53.583Z,27.30
2018-04-18T02:18:53.566Z,25.20
2018-04-18T02:19:53.550Z,25.90
2018-04-18T02:20:53.535Z,26.50
2018-04-18T02:21:53.520Z,25.10
2018-04-18T02:22:53.514Z,25.80
2018-04-18T02:23:53.491Z,26.50
2018-04-18T02:24:53.584Z,26.10
2018-04-18T02:25:53.462Z,26.80
2018-04-18T02:26:53.553Z,28.00
2018-04-18T02:27:53.437Z,27.00
2018-04-18T02:28:53.454Z,26.50
2018-04-18T02:29:53.406Z,27.00
2018-04-18T02:30:53.395Z,26.60
2018-04-18T02:31:53.380Z,26.50
2018-04-18T02:32:53.414Z,26.70
2018-04-18T02:33:53.346Z,27.30
2018-04-18T02:34:53.333Z,27.60
2018-04-18T02:35:53.317Z,27.50
2018-04-18T02:36:53.302Z,27.50
2018-04-18T02:37:53.293Z,27.20
2018-04-18T02:38:53.320Z,26.90
2018-04-18T02:39:53.257Z,27.00
2018-04-18T02:40:53.293Z,26.70
2018-04-18T02:41:53.234Z,27.30
2018-04-18T02:42:53.319Z,28.70
2018-04-18T02:43:53.215Z,28.30
2018-04-18T02:44:53.487Z,26.90
2018-04-18T02:45:53.167Z,28.10
2018-04-18T02:46:53.155Z,28.40
2018-04-18T02:47:53.146Z,28.50
2018-04-18T02:48:53.175Z,28.70
2018-04-18T02:49:53.112Z,28.30
2018-04-18T02:50:53.099Z,27.80
2018-04-18T02:51:53.091Z,28.90
2018-04-18T02:52:53.061Z,28.10
2018-04-18T02:53:53.048Z,27.80
2018-04-18T02:54:53.033Z,27.80
2018-04-18T02:55:53.016Z,27.30
2018-04-18T02:56:53.003Z,29.90
2018-04-18T02:57:52.995Z,27.40
2018-04-18T02:58:52.973Z,28.50
2018-04-18T02:59:52.960Z,28.90
2018-04-18T03:00:52.942Z,28.50
2018-04-18T03:01:52.931Z,27.70
2018-04-18T03:02:52.916Z,27.80
2018-04-18T03:03:53.154Z,27.50
2018-04-18T03:04:52.879Z,27.60
2018-04-18T03:05:52.868Z,28.90
2018-04-18T03:06:52.855Z,28.30
2018-04-18T03:07:52.842Z,29.60
2018-04-18T03:08:52.823Z,28.00
2018-04-18T03:09:52.809Z,27.50
2018-04-18T03:10:52.810Z,27.50
2018-04-18T03:11:52.774Z,28.40
2018-04-18T03:12:52.763Z,27.70
2018-04-18T03:13:52.746Z,28.70
2018-04-18T03:14:52.732Z,28.30
2018-04-18T03:15:52.716Z,29.10
2018-04-18T03:16:52.698Z,28.50
2018-04-18T03:17:52.690Z,29.50
2018-04-18T03:18:52.679Z,28.10
2018-04-18T03:19:52.651Z,29.30
2018-04-18T03:20:52.643Z,28.40
2018-04-18T03:21:52.623Z,28.50
2018-04-18T03:22:52.616Z,29.00
2018-04-18T03:23:52.593Z,29.20
2018-04-18T03:24:52.583Z,28.80
2018-04-18T03:25:52.562Z,28.70
2018-04-18T03:26:52.547Z,28.40
2018-04-18T03:27:52.532Z,26.70
2018-04-18T03:28:52.518Z,27.80
2018-04-18T03:29:52.507Z,29.70
2018-04-18T03:30:52.494Z,28.10
2018-04-18T03:31:52.475Z,28.30
2018-04-18T03:32:52.464Z,28.20
2018-04-18T03:33:52.445Z,27.40
2018-04-18T03:34:52.431Z,28.10
2018-04-18T03:35:52.452Z,27.90
2018-04-18T03:36:52.399Z,29.20
2018-04-18T03:37:52.382Z,28.90
2018-04-18T03:38:52.372Z,28.90
2018-04-18T03:39:52.354Z,28.70
2018-04-18T03:40:52.408Z,28.80
2018-04-18T03:41:52.319Z,29.30
2018-04-18T03:42:52.305Z,28.90
2018-04-18T03:43:52.293Z,29.60
2018-04-18T03:44:52.277Z,29.00
2018-04-18T03:45:52.260Z,28.80
2018-04-18T03:46:52.242Z,28.60
2018-04-18T03:47:52.233Z,28.30
2018-04-18T03:48:52.212Z,31.30
2018-04-18T03:49:52.202Z,29.30
2018-04-18T03:50:52.183Z,29.70
2018-04-18T03:51:52.172Z,29.80
2018-04-18T03:52:52.152Z,31.50
2018-04-18T03:53:52.137Z,30.20
2018-04-18T03:54:52.121Z,31.50
2018-04-18T03:55:52.107Z,32.60
2018-04-18T03:56:52.092Z,32.70
2018-04-18T03:57:52.077Z,32.00
2018-04-18T03:58:52.061Z,31.80
2018-04-18T03:59:52.043Z,30.20
2018-04-18T04:00:52.031Z,29.70
2018-04-18T04:01:52.025Z,31.30
2018-04-18T04:02:51.999Z,32.80
2018-04-18T04:03:51.984Z,31.90
2018-04-18T04:04:51.971Z,30.80
2018-04-18T04:05:51.952Z,31.70
2018-04-18T04:06:51.943Z,31.70
2018-04-18T04:07:51.922Z,32.30
2018-04-18T04:08:51.907Z,32.20
2018-04-18T04:09:51.905Z,31.50
2018-04-18T04:10:51.878Z,31.00
2018-04-18T04:11:51.863Z,31.80
2018-04-18T04:12:51.851Z,31.00
2018-04-18T04:13:51.834Z,31.20
2018-04-18T04:14:51.813Z,31.50
2018-04-18T04:15:51.803Z,31.20
2018-04-18T04:16:51.785Z,30.60
2018-04-18T04:17:51.772Z,32.50
2018-04-18T04:18:51.753Z,31.90
2018-04-18T04:19:51.740Z,31.20
2018-04-18T04:20:51.721Z,31.90
2018-04-18T04:21:51.710Z,31.20
2018-04-18T04:22:51.692Z,30.70
2018-04-18T04:23:51.676Z,30.80
2018-04-18T04:24:51.717Z,30.70
2018-04-18T04:25:51.644Z,30.40
2018-04-18T04:26:51.634Z,30.70
2018-04-18T04:27:51.713Z,29.70
2018-04-18T04:28:51.598Z,29.90
2018-04-18T04:29:51.664Z,30.60
2018-04-18T04:30:51.567Z,30.30
2018-04-18T04:31:51.550Z,30.90
2018-04-18T04:32:51.535Z,30.40
2018-04-18T04:33:51.623Z,74.70
2018-04-18T04:34:51.507Z,45.50
2018-04-18T04:35:51.591Z,33.50
2018-04-18T04:36:51.474Z,32.30
2018-04-18T04:37:51.558Z,34.70
2018-04-18T04:38:51.442Z,32.30
2018-04-18T04:39:51.481Z,35.20
2018-04-18T04:40:51.411Z,33.50
2018-04-18T04:41:51.407Z,30.70
2018-04-18T04:42:51.388Z,31.30
2018-04-18T04:43:51.368Z,28.90
2018-04-18T04:44:51.364Z,30.90
2018-04-18T04:45:51.332Z,30.30
2018-04-18T04:46:51.318Z,30.40
2018-04-18T04:47:51.306Z,31.20
2018-04-18T04:48:51.288Z,32.00
2018-04-18T04:49:51.272Z,30.70
2018-04-18T04:50:51.255Z,32.40
2018-04-18T04:51:51.250Z,31.10
2018-04-18T04:52:51.224Z,30.40
2018-04-18T04:53:51.209Z,32.50
2018-04-18T04:54:51.196Z,31.50
2018-04-18T04:55:51.186Z,32.00
2018-04-18T04:56:51.162Z,31.10
2018-04-18T04:57:51.146Z,30.60
2018-04-18T04:58:51.133Z,30.80
2018-04-18T04:59:51.124Z,30.10
2018-04-18T05:00:51.101Z,31.20
2018-04-18T05:01:51.091Z,30.90
2018-04-18T05:02:51.080Z,32.30
2018-04-18T05:03:51.059Z,34.00
2018-04-18T05:04:51.047Z,34.10
2018-04-18T05:05:51.023Z,33.80
2018-04-18T05:06:51.011Z,34.40
2018-04-18T05:07:50.992Z,34.90
2018-04-18T05:08:50.980Z,34.60
2018-04-18T05:09:50.962Z,33.40
2018-04-18T05:10:50.950Z,32.90
2018-04-18T05:11:50.933Z,33.20
2018-04-18T05:12:50.919Z,34.50
2018-04-18T05:13:50.900Z,32.30
2018-04-18T05:14:50.882Z,34.50
2018-04-18T05:15:50.871Z,34.50
2018-04-18T05:16:50.854Z,34.50
2018-04-18T05:17:50.838Z,34.20
2018-04-18T05:18:50.824Z,34.90
2018-04-18T05:19:50.814Z,33.80
2018-04-18T05:20:50.811Z,35.60
2018-04-18T05:21:50.775Z,35.40
2018-04-18T05:22:50.763Z,36.50
2018-04-18T05:23:50.744Z,36.00
2018-04-18T05:24:50.730Z,35.30
2018-04-18T05:25:50.710Z,36.40
2018-04-18T05:26:50.695Z,36.90
2018-04-18T05:27:50.680Z,37.10
2018-04-18T05:28:50.664Z,36.00
2018-04-18T05:29:50.654Z,35.70
2018-04-18T05:30:50.666Z,35.70
2018-04-18T05:31:50.625Z,36.30
2018-04-18T05:32:50.609Z,35.90
2018-04-18T05:33:50.587Z,37.70
2018-04-18T05:34:50.572Z,36.20
2018-04-18T05:35:50.552Z,39.10
2018-04-18T05:36:50.550Z,37.30
2018-04-18T05:37:50.529Z,37.70
2018-04-18T05:38:50.516Z,38.60
2018-04-18T05:39:50.494Z,38.30
2018-04-18T05:40:50.473Z,39.00
2018-04-18T05:41:50.461Z,40.30
2018-04-18T05:42:50.447Z,39.70
2018-04-18T05:43:50.425Z,38.10
2018-04-18T05:44:50.409Z,39.40
2018-04-18T05:45:50.392Z,38.60
2018-04-18T05:46:50.384Z,39.20
2018-04-18T05:47:50.362Z,38.90
2018-04-18T05:48:50.346Z,38.10
2018-04-18T05:49:50.328Z,38.30
2018-04-18T05:50:50.324Z,38.70
2018-04-18T05:51:50.298Z,38.20
2018-04-18T05:52:50.284Z,36.20
2018-04-18T05:53:50.267Z,37.40
2018-04-18T05:54:50.286Z,38.50
2018-04-18T05:55:50.244Z,36.80
2018-04-18T05:56:50.236Z,36.60
2018-04-18T05:57:50.227Z,36.20
2018-04-18T05:58:50.194Z,36.50
2018-04-18T05:59:50.178Z,36.50
2018-04-18T06:00:50.174Z,34.80
2018-04-18T06:01:50.145Z,37.20
2018-04-18T06:02:50.132Z,36.80
2018-04-18T06:03:50.124Z,35.70
2018-04-18T06:04:50.129Z,35.60
2018-04-18T06:05:50.094Z,35.30
2018-04-18T06:06:50.073Z,36.30
2018-04-18T06:07:50.059Z,34.50
2018-04-18T06:08:50.050Z,35.90
2018-04-18T06:09:50.023Z,36.70
2018-04-18T06:10:50.009Z,35.80
2018-04-18T06:11:49.993Z,35.00
2018-04-18T06:12:49.983Z,35.70
2018-04-18T06:13:49.961Z,35.30
2018-04-18T06:14:49.957Z,35.50
2018-04-18T06:15:49.938Z,35.70
2018-04-18T06:16:49.923Z,36.20
2018-04-18T06:17:49.904Z,34.80
2018-04-18T06:18:49.895Z,35.30
2018-04-18T06:19:49.874Z,38.00
2018-04-18T06:20:49.860Z,37.70
2018-04-18T06:21:49.842Z,36.00
2018-04-18T06:22:49.850Z,36.30
2018-04-18T06:23:49.825Z,35.30
2018-04-18T06:24:49.867Z,36.90
2018-04-18T06:25:49.793Z,36.70
2018-04-18T06:26:49.780Z,36.20
2018-04-18T06:27:49.766Z,37.10
2018-04-18T06:28:49.745Z,36.30
2018-04-18T06:29:49.731Z,37.20
2018-04-18T06:30:49.773Z,37.50
2018-04-18T06:31:49.703Z,37.50
2018-04-18T06:32:49.780Z,36.20
2018-04-18T06:33:49.674Z,37.80
2018-04-18T06:34:49.760Z,37.20
2018-04-18T06:35:49.644Z,36.50
2018-04-18T06:36:49.641Z,36.80
2018-04-18T06:37:49.616Z,36.90
2018-04-18T06:38:49.755Z,37.10
2018-04-18T06:39:49.593Z,38.90
2018-04-18T06:40:49.623Z,37.50
2018-04-18T06:41:49.562Z,38.80
2018-04-18T06:42:49.562Z,38.00
2018-04-18T06:43:49.531Z,38.80
2018-04-18T06:44:49.517Z,40.80
2018-04-18T06:45:49.532Z,39.10
2018-04-18T06:46:49.493Z,39.80
2018-04-18T06:47:49.481Z,40.30
2018-04-18T06:48:49.464Z,40.70
2018-04-18T06:49:49.452Z,41.60
2018-04-18T06:50:49.444Z,40.30
2018-04-18T06:51:49.433Z,42.50
2018-04-18T06:52:49.430Z,41.50
2018-04-18T06:53:49.417Z,41.70
2018-04-18T06:54:49.401Z,39.70
2018-04-18T06:55:49.393Z,39.60
2018-04-18T06:56:49.386Z,41.10
2018-04-18T06:57:49.370Z,38.30
2018-04-18T06:58:49.371Z,39.40
2018-04-18T06:59:49.357Z,40.00
2018-04-18T07:00:49.353Z,39.30
2018-04-18T07:01:49.353Z,40.10
2018-04-18T07:02:49.336Z,39.20
2018-04-18T07:03:49.335Z,39.40
2018-04-18T07:04:49.324Z,40.20
2018-04-18T07:05:49.327Z,39.80
2018-04-18T07:06:49.315Z,39.30
2018-04-18T07:07:49.309Z,39.00
2018-04-18T07:08:49.307Z,39.80
2018-04-18T07:09:49.301Z,39.40
2018-04-18T07:10:49.296Z,38.20
2018-04-18T07:11:49.290Z,39.90
2018-04-18T07:12:49.290Z,40.00
2018-04-18T07:13:49.289Z,39.20
2018-04-18T07:14:49.284Z,38.40
2018-04-18T07:15:49.289Z,38.00
2018-04-18T07:16:49.281Z,38.20
2018-04-18T07:17:49.286Z,36.30
2018-04-18T07:18:49.279Z,38.10
2018-04-18T07:19:49.274Z,38.70
2018-04-18T07:20:49.272Z,37.50
2018-04-18T07:21:49.273Z,37.50
2018-04-18T07:22:49.273Z,37.80
2018-04-18T07:23:49.275Z,37.60
2018-04-18T07:24:49.274Z,38.20
2018-04-18T07:25:49.272Z,37.10
2018-04-18T07:26:49.271Z,36.70
2018-04-18T07:27:49.273Z,36.10
2018-04-18T07:28:49.274Z,33.00
2018-04-18T07:29:49.278Z,34.00
2018-04-18T07:30:49.274Z,33.00
2018-04-18T07:31:49.290Z,31.80
2018-04-18T07:32:49.279Z,33.60
2018-04-18T07:33:49.288Z,32.50
2018-04-18T07:34:49.284Z,32.20
2018-04-18T07:35:49.294Z,33.50
2018-04-18T07:36:49.297Z,31.70
2018-04-18T07:37:49.296Z,32.90
2018-04-18T07:38:49.306Z,32.00
2018-04-18T07:39:49.308Z,32.10
2018-04-18T07:40:49.307Z,31.20
2018-04-18T07:41:49.309Z,30.10
2018-04-18T07:42:49.312Z,30.10
2018-04-18T07:43:49.322Z,30.90
2018-04-18T07:44:49.325Z,30.30
2018-04-18T07:45:49.325Z,29.80
2018-04-18T07:46:49.335Z,31.40
2018-04-18T07:47:49.335Z,30.30
2018-04-18T07:48:49.345Z,31.00
2018-04-18T07:49:49.344Z,30.30
2018-04-18T07:50:49.346Z,29.20
2018-04-18T07:51:49.355Z,29.50
2018-04-18T07:52:49.360Z,29.20
2018-04-18T07:53:49.364Z,29.00
2018-04-18T07:54:49.374Z,28.50
2018-04-18T07:55:49.375Z,28.60
2018-04-18T07:56:49.381Z,28.10
2018-04-18T07:57:49.383Z,30.00
2018-04-18T07:58:49.394Z,27.40
2018-04-18T07:59:49.394Z,28.10
2018-04-18T08:00:49.407Z,27.80
2018-04-18T08:01:49.408Z,27.60
2018-04-18T08:02:49.419Z,27.10
2018-04-18T08:03:49.424Z,27.70
2018-04-18T08:04:49.427Z,27.70
2018-04-18T08:05:49.439Z,27.80
2018-04-18T08:06:49.434Z,28.20
2018-04-18T08:07:49.454Z,27.10
2018-04-18T08:08:49.447Z,26.60
2018-04-18T08:09:49.454Z,26.40
2018-04-18T08:10:49.470Z,26.10
2018-04-18T08:11:49.466Z,24.50
2018-04-18T08:12:49.477Z,26.70
2018-04-18T08:13:49.480Z,25.30
2018-04-18T08:14:49.490Z,24.40
2018-04-18T08:15:49.493Z,24.10
2018-04-18T08:16:49.509Z,24.50
2018-04-18T08:17:49.518Z,22.80
2018-04-18T08:18:49.518Z,23.00
2018-04-18T08:19:49.524Z,23.50
2018-04-18T08:20:49.526Z,24.20
2018-04-18T08:21:49.565Z,22.70
2018-04-18T08:22:49.553Z,23.20
2018-04-18T08:23:49.560Z,23.60
2018-04-18T08:24:49.557Z,23.20
2018-04-18T08:25:49.565Z,23.20
2018-04-18T08:26:49.573Z,23.30
2018-04-18T08:27:49.586Z,24.00
2018-04-18T08:28:49.593Z,23.50
2018-04-18T08:29:49.597Z,22.80
2018-04-18T08:30:49.605Z,23.30
2018-04-18T08:31:49.618Z,22.50
2018-04-18T08:32:49.634Z,21.50
2018-04-18T08:33:49.626Z,19.50
2018-04-18T08:34:49.644Z,18.80
2018-04-18T08:35:49.642Z,18.70
2018-04-18T08:36:49.647Z,18.30
2018-04-18T08:37:49.660Z,19.10
2018-04-18T08:38:49.661Z,19.30
2018-04-18T08:39:49.675Z,19.60
2018-04-18T08:40:49.693Z,19.10
2018-04-18T08:41:49.685Z,19.30
2018-04-18T08:42:49.700Z,18.50
2018-04-18T08:43:49.705Z,19.30
2018-04-18T08:44:49.715Z,19.10
2018-04-18T08:45:49.719Z,19.90
2018-04-18T08:46:49.724Z,20.70
2018-04-18T08:47:49.733Z,18.20
2018-04-18T08:48:49.780Z,19.10
2018-04-18T08:49:49.746Z,20.10
2018-04-18T08:50:49.756Z,18.20
2018-04-18T08:51:49.765Z,18.30
2018-04-18T08:52:49.774Z,18.10
2018-04-18T08:53:49.780Z,18.10
2018-04-18T08:54:49.783Z,17.70
2018-04-18T08:55:49.793Z,18.00
2018-04-18T08:56:49.805Z,16.80
2018-04-18T08:57:49.807Z,17.40
2018-04-18T08:58:49.816Z,15.90
2018-04-18T08:59:49.819Z,14.60
2018-04-18T09:00:49.834Z,16.40
2018-04-18T09:01:49.832Z,15.70
2018-04-18T09:02:49.842Z,15.00
2018-04-18T09:03:49.844Z,13.20
2018-04-18T09:04:49.856Z,12.10
2018-04-18T09:05:49.868Z,11.80
2018-04-18T09:06:49.872Z,13.90
2018-04-18T09:07:49.871Z,13.10
2018-04-18T09:08:49.878Z,12.30
2018-04-18T09:09:49.934Z,13.40
2018-04-18T09:10:49.893Z,14.10
2018-04-18T09:11:49.902Z,13.60
2018-04-18T09:12:49.901Z,14.70
2018-04-18T09:13:49.912Z,14.20
2018-04-18T09:14:49.915Z,14.30
2018-04-18T09:15:49.924Z,13.50
2018-04-18T09:16:49.922Z,13.30
2018-04-18T09:17:49.923Z,13.80
2018-04-18T09:18:49.932Z,13.80
2018-04-18T09:19:49.938Z,14.20
2018-04-18T09:20:49.943Z,11.80
2018-04-18T09:21:49.942Z,11.80
2018-04-18T09:22:49.948Z,9.90
2018-04-18T09:23:49.951Z,8.30
2018-04-18T09:24:49.950Z,11.90
2018-04-18T09:25:49.960Z,13.10
2018-04-18T09:26:49.955Z,13.10
2018-04-18T09:27:49.962Z,12.60
2018-04-18T09:28:49.963Z,11.90
2018-04-18T09:29:49.967Z,11.40
2018-04-18T09:30:49.968Z,11.70
2018-04-18T09:31:49.971Z,11.30
2018-04-18T09:32:49.976Z,8.90
2018-04-18T09:33:49.981Z,11.50
2018-04-18T09:34:49.983Z,9.70
2018-04-18T09:35:49.982Z,9.90
2018-04-18T09:36:49.981Z,10.30
2018-04-18T09:37:49.981Z,11.30
2018-04-18T09:38:49.988Z,9.90
2018-04-18T09:39:49.987Z,9.30
2018-04-18T09:40:49.987Z,9.80
2018-04-18T09:41:49.987Z,11.60
2018-04-18T09:42:49.987Z,10.40
2018-04-18T09:43:49.991Z,9.70
2018-04-18T09:44:49.993Z,7.40
2018-04-18T09:45:49.990Z,6.50
2018-04-18T09:46:49.991Z,6.70
2018-04-18T09:47:50.003Z,8.50
2018-04-18T09:48:50.000Z,9.50
2018-04-18T09:49:49.993Z,10.10
2018-04-18T09:50:49.991Z,9.20
2018-04-18T09:51:49.992Z,9.30
2018-04-18T09:52:49.992Z,9.90
2018-04-18T09:53:50.001Z,8.70
2018-04-18T09:54:49.993Z,9.30
2018-04-18T09:55:49.993Z,8.00
2018-04-18T09:56:49.992Z,7.30
2018-04-18T09:57:49.991Z,7.40
2018-04-18T09:58:50.004Z,9.40
2018-04-18T09:59:49.985Z,11.20
2018-04-18T10:00:49.991Z,12.00
2018-04-18T10:01:49.982Z,11.60
2018-04-18T10:02:49.990Z,11.20
2018-04-18T10:03:49.984Z,11.60
2018-04-18T10:04:49.982Z,11.70
2018-04-18T10:05:49.989Z,11.20
2018-04-18T10:06:49.975Z,9.70
2018-04-18T10:07:49.982Z,9.30
2018-04-18T10:08:49.972Z,9.90
2018-04-18T10:09:49.972Z,11.00
2018-04-18T10:10:49.967Z,10.50
2018-04-18T10:11:49.966Z,10.60
2018-04-18T10:12:49.967Z,10.90
2018-04-18T10:13:49.969Z,11.40
2018-04-18T10:14:49.963Z,10.00
2018-04-18T10:15:49.967Z,10.90
2018-04-18T10:16:49.956Z,9.50
2018-04-18T10:17:49.952Z,11.30
2018-04-18T10:18:49.951Z,11.20
2018-04-18T10:19:49.948Z,12.00
2018-04-18T10:20:49.952Z,11.20
2018-04-18T10:21:49.939Z,12.50
2018-04-18T10:22:50.000Z,11.90
2018-04-18T10:23:49.937Z,12.00
2018-04-18T10:24:49.936Z,12.50
2018-04-18T10:25:49.934Z,10.90
2018-04-18T10:26:49.932Z,11.50
2018-04-18T10:27:49.930Z,11.20
2018-04-18T10:28:49.927Z,12.80
2018-04-18T10:29:49.920Z,12.30
2018-04-18T10:30:49.924Z,12.60
2018-04-18T10:31:49.914Z,11.40
2018-04-18T10:32:49.911Z,12.30
2018-04-18T10:33:49.911Z,12.20
2018-04-18T10:34:49.907Z,13.90
2018-04-18T10:35:49.907Z,11.90
2018-04-18T10:36:49.903Z,12.20
2018-04-18T10:37:49.894Z,12.10
2018-04-18T10:38:49.894Z,11.70
2018-04-18T10:39:49.892Z,12.80
2018-04-18T10:40:49.899Z,12.50
2018-04-18T10:41:49.885Z,12.10
2018-04-18T10:42:49.879Z,12.00
2018-04-18T10:43:49.878Z,13.60
2018-04-18T10:44:49.872Z,12.20
2018-04-18T10:45:49.872Z,13.60
2018-04-18T10:46:49.872Z,12.60
2018-04-18T10:47:49.865Z,12.60
2018-04-18T10:48:49.862Z,13.10
2018-04-18T10:49:49.859Z,12.10
2018-04-18T10:50:49.851Z,13.40
2018-04-18T10:51:49.847Z,12.40
2018-04-18T10:52:49.854Z,12.10
2018-04-18T10:53:49.840Z,12.00
2018-04-18T10:54:49.835Z,11.70
2018-04-18T10:55:49.841Z,11.40
2018-04-18T10:56:49.832Z,12.00
2018-04-18T10:57:49.834Z,12.10
2018-04-18T10:58:49.826Z,11.70
2018-04-18T10:59:49.828Z,12.30
2018-04-18T11:00:49.841Z,12.80
2018-04-18T11:01:49.814Z,12.30
2018-04-18T11:02:49.813Z,12.10
2018-04-18T11:03:49.805Z,12.00
2018-04-18T11:04:49.802Z,12.70
2018-04-18T11:05:49.846Z,11.70
2018-04-18T11:06:49.797Z,11.20
2018-04-18T11:07:49.845Z,10.80
2018-04-18T11:08:49.797Z,11.10
2018-04-18T11:09:49.792Z,10.10
2018-04-18T11:10:49.785Z,10.60
2018-04-18T11:11:49.830Z,9.70
2018-04-18T11:12:49.776Z,11.00
2018-04-18T11:13:49.775Z,10.10
2018-04-18T11:14:49.776Z,10.00
2018-04-18T11:15:49.813Z,10.90
2018-04-18T11:16:49.762Z,9.60
2018-04-18T11:17:49.760Z,10.60
2018-04-18T11:18:49.751Z,10.10
2018-04-18T11:19:49.752Z,10.00
2018-04-18T11:20:49.758Z,10.50
2018-04-18T11:21:49.745Z,10.30
2018-04-18T11:22:49.736Z,10.00
2018-04-18T11:23:49.746Z,10.80
2018-04-18T11:24:49.732Z,10.40
2018-04-18T11:25:49.729Z,10.40
2018-04-18T11:26:49.723Z,9.90
2018-04-18T11:27:49.723Z,10.30
2018-04-18T11:28:49.723Z,10.20
2018-04-18T11:29:49.716Z,10.30
2018-04-18T11:30:49.714Z,9.70
2018-04-18T11:31:49.707Z,9.70
2018-04-18T11:32:49.706Z,10.60
2018-04-18T11:33:49.705Z,9.10
2018-04-18T11:34:49.698Z,9.00
2018-04-18T11:35:49.702Z,10.30
2018-04-18T11:36:49.702Z,10.80
2018-04-18T11:37:49.690Z,11.30
2018-04-18T11:38:49.689Z,11.50
2018-04-18T11:39:49.719Z,10.80
2018-04-18T11:40:49.684Z,11.60
2018-04-18T11:41:49.677Z,10.90
2018-04-18T11:42:49.775Z,11.40
2018-04-18T11:43:49.673Z,11.10
2018-04-18T11:44:49.727Z,12.20
2018-04-18T11:45:49.663Z,11.70
2018-04-18T11:46:49.771Z,11.70
2018-04-18T11:47:49.654Z,11.30
2018-04-18T11:48:49.653Z,11.10
2018-04-18T11:49:49.645Z,11.00
2018-04-18T11:50:49.644Z,11.40
2018-04-18T11:51:49.640Z,11.70
2018-04-18T11:52:49.643Z,11.50
2018-04-18T11:53:49.634Z,11.80
2018-04-18T11:54:49.631Z,11.90
2018-04-18T11:55:49.627Z,11.20
2018-04-18T11:56:49.620Z,12.40
2018-04-18T11:57:49.625Z,12.30
2018-04-18T11:58:49.611Z,12.60
2018-04-18T11:59:49.619Z,12.00
2018-04-18T12:00:49.605Z,12.80
2018-04-18T12:01:49.605Z,12.30
2018-04-18T12:02:49.606Z,12.30
2018-04-18T12:03:49.595Z,12.20
2018-04-18T12:04:49.589Z,12.70
2018-04-18T12:05:49.586Z,13.30
2018-04-18T12:06:49.579Z,12.40
2018-04-18T12:07:49.582Z,13.70
2018-04-18T12:08:49.573Z,13.30
2018-04-18T12:09:49.574Z,15.30
2018-04-18T12:10:49.577Z,14.80
2018-04-18T12:11:49.650Z,15.90
2018-04-18T12:12:49.565Z,13.70
2018-04-18T12:13:49.715Z,14.70
2018-04-18T12:14:49.560Z,14.90
2018-04-18T12:15:49.555Z,14.70
2018-04-18T12:16:49.547Z,15.70
2018-04-18T12:17:49.594Z,16.40
2018-04-18T12:18:49.536Z,16.60
2018-04-18T12:19:49.586Z,16.50
2018-04-18T12:20:49.528Z,16.50
2018-04-18T12:21:49.573Z,16.00
2018-04-18T12:22:49.558Z,17.60
2018-04-18T12:23:49.519Z,16.60
2018-04-18T12:24:49.515Z,15.30
2018-04-18T12:25:49.519Z,15.70
2018-04-18T12:26:49.516Z,17.50
2018-04-18T12:27:49.505Z,16.30
2018-04-18T12:28:49.501Z,15.50
2018-04-18T12:29:49.493Z,14.90
2018-04-18T12:30:49.493Z,15.60
2018-04-18T12:31:49.493Z,15.80
2018-04-18T12:32:49.483Z,14.90
2018-04-18T12:33:49.553Z,15.30
2018-04-18T12:34:49.473Z,16.20
2018-04-18T12:35:49.478Z,15.60
2018-04-18T12:36:49.469Z,16.20
2018-04-18T12:37:49.465Z,16.00
2018-04-18T12:38:49.465Z,16.80
2018-04-18T12:39:49.453Z,15.60
2018-04-18T12:40:49.463Z,15.30
2018-04-18T12:41:49.458Z,17.20
2018-04-18T12:42:49.449Z,16.70
2018-04-18T12:43:49.504Z,16.20
2018-04-18T12:44:49.442Z,16.40
2018-04-18T12:45:49.436Z,16.30
2018-04-18T12:46:49.528Z,15.80
2018-04-18T12:47:49.424Z,16.40
2018-04-18T12:48:49.423Z,17.40
2018-04-18T12:49:49.420Z,17.40
2018-04-18T12:50:49.422Z,17.10
2018-04-18T12:51:49.408Z,17.30
2018-04-18T12:52:49.402Z,18.60
2018-04-18T12:53:49.403Z,17.80